Flight Track Log - Related Links

Times and Time Zones

All times are in EDT time to prevent confusion due to time zone crossing. See the KYE504 flight status page for this flight to view local times or setup timezone preferences in your user account.

Time Position Orientation Groundspeed Altitude Reporting Facility
EDT Latitude Longitude Course Direction KTS MPH feet Rate Location/Type
Fri 06:12:00 AM 0.2616 -78.6842 357° North  Level Estimated
Fri 06:13:00 AM 0.3877 -78.6915 357° North  Level Estimated
Fri 06:14:00 AM 0.5138 -78.6989 357° North  Level Estimated
Fri 06:15:00 AM 0.6399 -78.7063 357° North  Level Estimated
Fri 06:16:00 AM 0.7660 -78.7137 357° North  Level Estimated
Fri 06:17:00 AM 0.8920 -78.7211 357° North  Level Estimated
Fri 06:18:00 AM 1.0181 -78.7284 357° North  Level Estimated
Fri 06:19:00 AM 1.1442 -78.7358 357° North  Level Estimated
Fri 06:20:00 AM 1.2703 -78.7432 357° North  Level Estimated
Fri 06:21:00 AM 1.3964 -78.7506 357° North  Level Estimated
Fri 06:22:00 AM 1.5225 -78.7580 357° North  Level Estimated
Fri 06:23:00 AM 1.6486 -78.7654 357° North  Level Estimated
Fri 06:24:00 AM 1.7747 -78.7728 357° North  Level Estimated
Fri 06:25:00 AM 1.9008 -78.7802 357° North  Level Estimated
Fri 06:26:00 AM 2.0340 -78.7975 353° North  Level FlightAware Approximate
Fri 06:27:00 AM 2.1672 -78.8149 353° North  Level FlightAware Approximate
Fri 06:28:00 AM 2.3004 -78.8324 353° North  Level FlightAware Approximate
Fri 06:29:00 AM 2.4336 -78.8498 353° North  Level FlightAware Approximate
Fri 06:30:00 AM 2.5669 -78.8672 353° North  Level FlightAware Approximate
Fri 06:31:00 AM 2.7001 -78.8846 353° North  Level FlightAware Approximate
Fri 06:32:00 AM 2.8333 -78.9020 353° North  Level FlightAware Approximate
Fri 06:33:00 AM 2.9665 -78.9194 353° North  Level FlightAware Approximate
Fri 06:34:00 AM 3.0997 -78.9369 353° North  Level FlightAware Approximate
Fri 06:35:00 AM 3.2330 -78.9543 353° North  Level FlightAware Approximate
Fri 06:36:00 AM 3.3662 -78.9717 353° North  Level FlightAware Approximate
Fri 06:37:00 AM 3.4994 -78.9892 353° North  Level FlightAware Approximate
Fri 06:38:00 AM 3.6326 -79.0066 353° North  Level FlightAware Approximate
Fri 06:39:00 AM 3.7658 -79.0240 353° North  Level FlightAware Approximate
Fri 06:40:00 AM 3.8991 -79.0415 353° North  Level FlightAware Approximate
Fri 06:41:00 AM 4.0323 -79.0590 353° North  Level FlightAware Approximate
Fri 06:42:00 AM 4.1655 -79.0764 353° North  Level FlightAware Approximate
Fri 06:43:00 AM 4.2987 -79.0939 353° North  Level FlightAware Approximate
Fri 06:44:00 AM 4.4319 -79.1114 353° North  Level FlightAware Approximate
Fri 06:45:00 AM 4.5652 -79.1289 353° North  Level FlightAware Approximate
Fri 06:46:00 AM 4.6984 -79.1464 353° North  Level FlightAware Approximate
Fri 06:47:00 AM 4.8316 -79.1639 353° North  Level FlightAware Approximate
Fri 06:48:00 AM 4.9648 -79.1814 353° North  Level FlightAware Approximate
Fri 06:49:00 AM 5.0980 -79.1989 353° North  Level FlightAware Approximate
Fri 06:50:00 AM 5.2313 -79.2164 353° North  Level FlightAware Approximate
Fri 06:51:00 AM 5.3662 -79.2304 354° North  Level FlightAware Approximate

Login

Don't have an account? Register now (free) for customized features, flight alerts, and more!